Terminal Aerodrome Forecast
Issued by NWS

Home | Current Version | Previous Version | Text Only | Print | Product List | Glossary On
Versions: 1 2 3 4 5 6 7 8 9 10 11 12 13 14 15 16 17 18 19 20 21 22 23 24 25
000
FTUS43 KBIS 291700
TAFJMS
TAF
KJMS 291726Z 2918/3018 33013KT P6SM BKN025
      TEMPO 2922/3002 SCT025
     FM300200 VRB05KT P6SM VCFG SCT070
     FM301500 12005KT P6SM SKC=

USA.gov is the U.S. government's official web portal to all federal, state and local government web resources and services.